Nearby METAR Reports

 

KEWB - New Bedford, Massachusetts, USA
Distance from station: ESE 9mi, 15km
Updated: Thu, 23-May-2024 8:53pm EDT
Clear
Clear
 Wind from SW
Wind: SW 7 mph , 11 km/h
Temperature: 66°F , 19°C
Dew Point: 64°F , 18°C
Humidity: 94%
Barometer: 29.80 inHg , 1009.1 hPa
Clouds: Clear
Visibility: 10 miles , 16 km
2024/05/24 00:53 KEWB 240053Z 23006KT 10SM CLR 19/18 A2980 RMK AO2 SLP091 T01890178
KTAN - Taunton, Massachusetts, USA
Distance from station: NNE 11mi, 18km
Updated: Thu, 23-May-2024 8:52pm EDT
Clear
Clear
 Wind from SW
Wind: SW 7 mph , 11 km/h
Temperature: 70°F , 21°C
Dew Point: 64°F , 18°C
Humidity: 83%
Barometer: 29.80 inHg , 1009.1 hPa
Clouds: Clear
Visibility: 10 miles , 16 km
2024/05/24 00:52 KTAN 240052Z AUTO 22006KT 10SM CLR 21/18 A2980 RMK AO2 SLP089 T02110183
 
KPVD - Providence/Green, Rhode Island, USA
Distance from station: W 16mi, 26km
Updated: Thu, 23-May-2024 8:51pm EDT
Mostly cloudy
Mostly cloudy
 Wind from SSW
Wind: SSW 7 mph , 11 km/h
Temperature: 68°F , 20°C
Dew Point: 66°F , 19°C
Humidity: 94%
Barometer: 29.81 inHg , 1009.5 hPa
Clouds: Mostly cloudy
Visibility: 10 miles , 16 km
Cloud details: Mostly cloudy 25000 ft
2024/05/24 00:51 KPVD 240051Z 21006KT 10SM BKN250 20/19 A2981 RMK AO2 SLP093 T02000194
KUUU - Newport, Rhode Island, USA
Distance from station: SSW 16mi, 27km
Updated: Thu, 23-May-2024 8:53pm EDT
Clear
Clear
 Wind from varies
Wind: varies 3 mph , 6 km/h
Temperature: 64°F , 18°C
Dew Point: 63°F , 17°C
Humidity: 94%
Barometer: 29.82 inHg , 1009.8 hPa
Clouds: Clear
Visibility: 10 miles , 16 km
2024/05/24 00:53 KUUU 240053Z AUTO VRB03KT 10SM CLR 18/17 A2982 RMK AO2 SLP095 T01780167
 
KOQU - N. Kingston/Quon, Rhode Island, USA
Distance from station: WSW 18mi, 29km
Updated: Thu, 23-May-2024 8:50pm EDT
Mostly cloudy
Mostly cloudy
 Wind from WSW
Wind: WSW 12 mph , 19 km/h
Temperature: 66°F , 19°C
Dew Point: 64°F , 18°C
Humidity: 94%
Barometer: 29.82 inHg , 1009.8 hPa
Clouds: Mostly cloudy
Visibility: 10 miles , 16 km
Cloud details: Mostly cloudy 25000 ft
2024/05/24 00:50 KOQU 240050Z 25010KT 10SM BKN250 19/18 A2982
KPYM - Plymouth, Massachusetts, USA
Distance from station: ENE 23mi, 37km
Updated: Thu, 23-May-2024 8:52pm EDT
Clear
Clear
 Wind from SSW
Wind: SSW 7 mph , 11 km/h
Temperature: 68°F , 20°C
Dew Point: 66°F , 19°C
Humidity: 94%
Barometer: 29.79 inHg , 1008.8 hPa
Clouds: Clear
Visibility: 10 miles , 16 km
2024/05/24 00:52 KPYM 240052Z AUTO 20006KT 10SM CLR 20/19 A2979 RMK AO2 SLP090 T02000189
 
KSFZ - Pawtucket, Rhode Island, USA
Distance from station: WNW 23mi, 38km
Updated: Thu, 23-May-2024 8:56pm EDT
Clear
Clear
 Wind from SSW
Wind: SSW 3 mph , 6 km/h
Temperature: 68°F , 20°C
Dew Point: 68°F , 20°C
Humidity: 100%
Barometer: 29.82 inHg , 1009.8 hPa
Clouds: Clear
Visibility: 8 miles , 13 km
2024/05/24 00:56 KSFZ 240056Z AUTO 21003KT 8SM CLR 20/20 A2982 RMK AO2 SLP095 T02000200 $
KOWD - Norwood, Massachusetts, USA
Distance from station: N 31mi, 50km
Updated: Thu, 23-May-2024 8:53pm EDT
Clear
Clear
 Wind from SW
Wind: SW 5 mph , 7 km/h
Temperature: 72°F , 22°C
Dew Point: 66°F , 19°C
Humidity: 83%
Barometer: 29.79 inHg , 1008.8 hPa
Clouds: Clear
Visibility: 10 miles , 16 km
2024/05/24 00:53 KOWD 240053Z 22004KT 10SM CLR 22/19 A2979 RMK AO2 SLP086 T02220194
 
KFMH - Falmouth/Otis Ab, Massachusetts, USA
Distance from station: ESE 32mi, 51km
Updated: Thu, 23-May-2024 9:45pm EDT
Clear
Clear
 Wind from SW
Wind: SW 7 mph , 11 km/h
Temperature: 63°F , 17°C
Dew Point: 63°F , 17°C
Humidity: 100%
Barometer: 29.83 inHg , 1010.2 hPa
Clouds: Clear
Visibility: 10 miles , 16 km
2024/05/24 01:45 KFMH 240145Z 23006KT 10SM CLR 17/17 A2983
KMQE - East Milton, Massachusetts, USA
Distance from station: N 33mi, 53km
Updated: Thu, 01-Jul-2021 9:51am EDT
NOT Current

 Wind from WNW
Wind: WNW 9 mph , 15 km/h
Temperature: 75°F , 24°C
Dew Point: 70°F , 21°C
Humidity: 83%
Barometer: 29.86 inHg , 1011.2 hPa
2021/07/01 13:51 KMQE 011351Z AUTO 30008KT 24/21 A2986 RMK AO1 SLP116 T02440206
 
KGHG - Marshfield, Massachusetts, USA
Distance from station: NE 34mi, 55km
Updated: Thu, 23-May-2024 9:15pm EDT
Clear
Clear
 Wind from WSW
Wind: WSW 7 mph , 11 km/h
Temperature: 68°F , 20°C
Dew Point: 66°F , 19°C
Humidity: 94%
Barometer: 29.78 inHg , 1008.5 hPa
Clouds: Clear
Visibility: 10 miles , 16 km
2024/05/24 01:15 KGHG 240115Z AUTO 25006KT 10SM CLR 20/19 A2978 RMK AO2
KMVY - Marthas Vineyard, Massachusetts, USA
Distance from station: SE 35mi, 56km
Updated: Thu, 23-May-2024 8:53pm EDT
Fog, Overcast
Fog, Overcast
 Wind from S
Wind: S 8 mph , 13 km/h
Temperature: 59°F , 15°C
Dew Point: 59°F , 15°C
Humidity: 100%
Barometer: 29.83 inHg , 1010.2 hPa
Summary: Fog
Clouds: Overcast
Visibility: 1/2 mile , 0.8 km
Cloud details: Overcast 200 ft
2024/05/24 00:53 KMVY 240053Z 18007KT 1/2SM R24/P6000FT FG VV002 15/15 A2983 RMK AO2 SLP100 T01500150
 
KBOS - Boston, Massachusetts, USA
Distance from station: N 44mi, 71km
Updated: Thu, 23-May-2024 8:54pm EDT
Mostly cloudy
Mostly cloudy
 Wind from SW
Wind: SW 12 mph , 19 km/h
Temperature: 73°F , 23°C
Dew Point: 64°F , 18°C
Humidity: 74%
Barometer: 29.77 inHg , 1008.1 hPa
Clouds: Mostly cloudy
Visibility: 10 miles , 16 km
Cloud details: Few Clouds 5000 ft
Mostly cloudy 25000 ft
2024/05/24 00:54 KBOS 240054Z 22010KT 10SM FEW050 BKN250 23/18 A2977 RMK AO2 SLP080 T02330183
KHYA - Hyannis, Massachusetts, USA
Distance from station: E 44mi, 71km
Updated: Thu, 23-May-2024 8:56pm EDT
Clear
Clear
 Wind from WSW
Wind: WSW 10 mph , 17 km/h
Temperature: 63°F , 17°C
Dew Point: 59°F , 15°C
Humidity: 88%
Barometer: 29.80 inHg , 1009.1 hPa
Clouds: Clear
Visibility: 10 miles , 16 km
2024/05/24 00:56 KHYA 240056Z AUTO 24009KT 10SM CLR 17/15 A2980 RMK AO2 SLP091 T01670150
 
KWST - Westerly, Rhode Island, USA
Distance from station: SW 44mi, 71km
Updated: Thu, 23-May-2024 8:53pm EDT
Clear
Clear
 Wind from SW
Wind: SW 3 mph , 6 km/h
Temperature: 66°F , 19°C
Dew Point: 63°F , 17°C
Humidity: 88%
Barometer: 29.83 inHg , 1010.2 hPa
Clouds: Clear
Visibility: 10 miles , 16 km
2024/05/24 00:53 KWST 240053Z AUTO 23003KT 10SM CLR 19/17 A2983 RMK AO2 SLP101 T01890167
KBID - Block Island, Rhode Island, USA
Distance from station: SSW 46mi, 74km
Updated: Thu, 23-May-2024 8:56pm EDT
Clear
Clear
 Wind from WSW
Wind: WSW 14 mph , 22 km/h
Temperature: 61°F , 16°C
Dew Point: 57°F , 14°C
Humidity: 88%
Barometer: 29.85 inHg , 1010.8 hPa
Clouds: Clear
Visibility: 10 miles , 16 km
2024/05/24 00:56 KBID 240056Z AUTO 24012KT 10SM CLR 16/14 A2985 RMK AO2 SLP108 T01560144 PNO $